Time;durP1;ratioP1;P1;durP2;ratioP2;P2;SDS_P1;SDS_P2;PMS_P1;PMS_P2;Temp;Humidity;BMP_temperature;BMP_pressure;BME280_temperature;BME280_humidity;BME280_pressure;Samples;Min_cycle;Max_cycle;Signal;HPM_P1;HPM_P2
2022/07/16 00:02:44;;;;;;;4.07;1.83;;;15.00;83.90;;;14.92;63.56;97647.22;4938491;28;20134;-50
2022/07/16 00:05:10;;;;;;;3.83;2.10;;;15.10;84.00;;;14.92;64.27;97649.03;4943944;28;20308;-50
2022/07/16 00:07:36;;;;;;;4.10;1.90;;;15.10;84.40;;;14.91;64.31;97641.97;4943141;28;20043;-49
2022/07/16 00:10:03;;;;;;;3.60;2.20;;;15.00;84.40;;;14.90;64.13;97646.44;4944770;28;20063;-51
2022/07/16 00:12:29;;;;;;;3.65;2.13;;;15.00;84.30;;;14.89;63.62;97640.28;4938598;28;20031;-48
2022/07/16 00:14:55;;;;;;;3.17;1.90;;;15.00;84.00;;;14.87;64.73;97643.94;4937390;28;20035;-47
2022/07/16 00:17:21;;;;;;;2.80;2.00;;;15.00;84.80;;;14.85;64.60;97645.81;4936713;28;20466;-49
2022/07/16 00:19:46;;;;;;;2.13;1.77;;;15.00;84.80;;;14.81;64.29;97639.78;4941694;28;20027;-54
2022/07/16 00:22:12;;;;;;;2.80;2.03;;;15.00;84.50;;;14.81;64.33;97644.25;4936583;28;20036;-47
2022/07/16 00:24:38;;;;;;;4.30;2.58;;;14.90;84.50;;;14.76;64.13;97647.13;4939696;28;20078;-48
2022/07/16 00:27:04;;;;;;;5.38;2.40;;;15.00;84.40;;;14.73;63.93;97644.59;4935516;28;20105;-48
2022/07/16 00:29:30;;;;;;;4.25;2.35;;;14.90;84.20;;;14.72;63.29;97642.91;4940617;28;20042;-51
2022/07/16 00:31:56;;;;;;;4.70;2.28;;;14.90;83.70;;;14.69;63.97;97638.59;4934568;28;20035;-49
2022/07/16 00:34:22;;;;;;;3.45;1.90;;;14.90;84.20;;;14.66;63.97;97636.13;4939208;28;20070;-49
2022/07/16 00:36:48;;;;;;;2.80;1.95;;;14.90;84.20;;;14.67;64.35;97640.47;4934386;28;20110;-49
2022/07/16 00:39:16;;;;;;;4.88;2.28;;;14.90;84.60;;;14.63;64.35;97633.59;4935727;28;20036;-46
2022/07/16 00:41:44;;;;;;;3.50;2.05;;;14.90;84.50;;;14.61;64.21;97653.22;4935682;29;20651;-49
2022/07/16 00:44:15;;;;;;;2.78;2.35;;;14.80;84.40;;;14.52;64.97;97646.53;4936244;28;20035;-50
2022/07/16 00:46:41;;;;;;;3.47;2.22;;;14.80;84.50;;;14.47;65.71;97654.69;4931701;28;20031;-48
2022/07/16 00:49:08;;;;;;;3.47;1.95;;;14.70;85.20;;;14.46;66.94;97652.09;4933031;28;20034;-52
2022/07/16 00:51:36;;;;;;;3.67;2.22;;;14.70;86.10;;;14.40;67.84;97645.31;4916052;28;20125;-52
2022/07/16 00:54:03;;;;;;;2.83;2.03;;;14.70;86.90;;;14.37;68.05;97650.75;4930934;28;20483;-49
2022/07/16 00:56:29;;;;;;;3.65;2.17;;;14.60;87.00;;;14.31;67.37;97651.06;4932056;28;20038;-51
2022/07/16 00:58:55;;;;;;;3.08;1.90;;;14.60;86.50;;;14.30;67.14;97650.22;4931399;28;20081;-51
2022/07/16 01:01:22;;;;;;;5.90;2.50;;;14.60;86.40;;;14.26;66.80;97651.28;4931600;29;20062;-50
2022/07/16 01:03:48;;;;;;;3.47;2.20;;;14.50;86.10;;;14.24;66.07;97653.16;4935637;29;20063;-48
2022/07/16 01:06:15;;;;;;;3.72;2.10;;;14.50;85.90;;;14.22;66.66;97652.34;4933052;28;20031;-48
2022/07/16 01:08:45;;;;;;;3.38;2.00;;;14.50;86.20;;;14.20;66.50;97648.94;4930113;28;20031;-51
2022/07/16 01:11:15;;;;;;;5.80;2.17;;;14.40;86.20;;;14.21;66.19;97652.44;4927455;28;20035;-49
2022/07/16 01:13:43;;;;;;;3.78;2.15;;;14.40;86.30;;;14.20;66.36;97650.72;4940740;28;20097;-49
2022/07/16 01:16:10;;;;;;;3.65;2.05;;;14.30;86.40;;;14.15;66.73;97645.63;4934617;28;20492;-46
2022/07/16 01:18:38;;;;;;;4.50;2.05;;;14.40;86.50;;;14.17;66.12;97651.72;4939136;28;20047;-50
2022/07/16 01:21:05;;;;;;;2.78;1.80;;;14.40;86.00;;;14.11;66.12;97652.88;4936134;28;20034;-49
2022/07/16 01:23:30;;;;;;;2.92;2.00;;;14.40;86.30;;;14.12;66.46;97653.72;4939530;28;20445;-50
2022/07/16 01:25:56;;;;;;;2.72;1.98;;;14.30;86.30;;;14.10;67.11;97653.81;4933621;28;20354;-49
2022/07/16 01:28:22;;;;;;;4.22;2.22;;;14.30;86.60;;;14.06;67.16;97649.56;4936350;28;20031;-50
2022/07/16 01:30:49;;;;;;;3.38;1.70;;;14.30;86.90;;;14.05;68.24;97649.63;4932601;29;20063;-51
2022/07/16 01:33:36;;;;;;;5.13;2.30;;;14.20;87.60;;;13.95;66.92;97657.19;4932902;28;20085;-51
2022/07/16 01:36:05;;;;;;;6.22;2.20;;;14.20;86.90;;;13.96;67.03;97647.41;4929604;28;20161;-47
2022/07/16 01:38:31;;;;;;;4.20;1.90;;;14.20;86.70;;;13.97;67.04;97657.09;4959486;23;20061;-39
2022/07/16 01:40:57;;;;;;;3.47;1.80;;;14.20;86.80;;;13.93;66.79;97664.34;4947651;28;20062;-39
2022/07/16 01:43:28;;;;;;;2.60;1.80;;;14.20;86.50;;;13.90;67.12;97660.03;4951564;28;20119;-40
2022/07/16 01:45:55;;;;;;;7.80;2.17;;;14.20;86.70;;;13.86;67.91;97658.47;4951427;28;20031;-40
2022/07/16 01:48:22;;;;;;;3.05;2.15;;;14.10;87.20;;;13.83;67.81;97655.94;4957621;28;20031;-40
2022/07/16 01:50:49;;;;;;;3.60;2.00;;;14.10;87.30;;;13.82;69.03;97656.88;4957700;28;20038;-40
2022/07/16 01:53:15;;;;;;;2.60;1.95;;;14.10;88.00;;;13.76;69.23;97651.84;4962610;28;20026;-39
2022/07/16 01:55:42;;;;;;;3.42;1.70;;;14.00;88.30;;;13.76;69.70;97654.50;4952765;28;20049;-39
2022/07/16 01:58:11;;;;;;;3.08;1.70;;;14.00;88.70;;;13.73;69.59;97652.84;4952815;28;20030;-39
2022/07/16 02:00:39;;;;;;;3.78;2.13;;;14.00;89.50;;;13.74;68.72;97651.91;4957352;28;20034;-39
2022/07/16 02:03:06;;;;;;;2.28;1.75;;;14.00;88.10;;;13.70;68.17;97644.19;4957755;28;20398;-39
2022/07/16 02:05:32;;;;;;;3.72;2.10;;;14.00;87.60;;;13.69;68.11;97650.41;4956675;28;20031;-40
2022/07/16 02:07:57;;;;;;;3.70;1.90;;;13.90;87.70;;;13.62;68.04;97635.72;4960335;28;20042;-40
2022/07/16 02:10:23;;;;;;;4.13;1.92;;;13.90;87.60;;;13.68;68.27;97646.06;4957183;28;20035;-39
2022/07/16 02:12:49;;;;;;;3.58;1.80;;;13.90;87.80;;;13.66;67.78;97643.47;4957407;28;20109;-39
2022/07/16 02:15:15;;;;;;;3.22;1.80;;;13.90;87.50;;;13.67;67.57;97647.81;4954075;28;20527;-40
2022/07/16 02:17:41;;;;;;;2.75;2.05;;;13.90;87.30;;;13.66;67.88;97651.41;4956565;28;20118;-39
2022/07/16 02:20:09;;;;;;;7.25;2.22;;;13.90;87.50;;;13.65;68.68;97643.53;4954791;28;20062;-40
2022/07/16 02:22:35;;;;;;;3.05;1.70;;;13.90;88.10;;;13.62;70.06;97648.97;4955011;28;20046;-39
2022/07/16 02:25:03;;;;;;;4.28;1.77;;;13.90;89.10;;;13.60;69.41;97649.03;4955408;28;20425;-40
2022/07/16 02:27:29;;;;;;;2.90;1.63;;;13.80;88.80;;;13.59;69.18;97654.44;4947757;28;20628;-40
2022/07/16 02:29:55;;;;;;;2.58;1.55;;;13.80;88.80;;;13.56;68.69;97656.25;4955986;28;20043;-39
2022/07/16 02:32:20;;;;;;;3.05;1.60;;;13.70;88.40;;;13.54;69.04;97652.81;4954327;28;20052;-39
2022/07/16 02:34:48;;;;;;;2.47;1.80;;;13.70;88.60;;;13.51;69.59;97652.09;4956075;28;20323;-39
2022/07/16 02:37:14;;;;;;;2.33;1.70;;;13.70;89.10;;;13.47;69.78;97650.53;4951605;28;20482;-39
2022/07/16 02:39:40;;;;;;;3.80;1.80;;;13.70;89.20;;;13.45;70.12;97641.78;4957972;28;20027;-39
2022/07/16 02:42:05;;;;;;;2.22;1.58;;;13.60;89.40;;;13.45;70.12;97647.94;4957022;28;20089;-40
2022/07/16 02:44:31;;;;;;;3.40;1.70;;;13.70;89.40;;;13.43;69.86;97643.66;4957695;28;20422;-40
2022/07/16 02:46:57;;;;;;;3.30;1.63;;;13.70;89.30;;;13.41;70.14;97643.72;4952165;28;20348;-40
2022/07/16 02:49:23;;;;;;;4.38;1.80;;;13.60;89.40;;;13.40;70.17;97639.31;4954642;28;20437;-39
2022/07/16 02:51:48;;;;;;;2.95;1.60;;;13.60;89.50;;;13.37;70.20;97647.44;4955920;28;20050;-40
2022/07/16 02:54:14;;;;;;;6.13;2.03;;;13.60;89.70;;;13.34;70.09;97640.47;4955735;28;20034;-40
2022/07/16 02:56:40;;;;;;;3.25;1.83;;;13.50;89.60;;;13.35;70.40;97650.16;4959326;28;20547;-39
2022/07/16 02:59:05;;;;;;;2.72;1.60;;;13.50;89.90;;;13.34;70.44;97652.84;4958420;28;20349;-40
2022/07/16 03:01:31;;;;;;;4.43;2.05;;;13.60;89.90;;;13.29;69.04;97645.06;4960940;28;20462;-40
2022/07/16 03:03:57;;;;;;;3.65;1.90;;;13.60;88.90;;;13.30;68.66;97652.09;4953858;28;20026;-39
2022/07/16 03:06:23;;;;;;;3.78;1.92;;;13.60;88.50;;;13.29;69.30;97658.31;4959513;28;20483;-40
2022/07/16 03:08:48;;;;;;;3.10;1.67;;;13.60;88.90;;;13.27;69.41;97652.22;4959001;28;20135;-40
2022/07/16 03:11:15;;;;;;;2.50;1.90;;;13.60;89.10;;;13.28;69.90;97646.00;4959180;28;20499;-39
2022/07/16 03:13:41;;;;;;;2.30;1.48;;;13.50;89.40;;;13.27;70.32;97654.03;4961375;28;20478;-39
2022/07/16 03:16:07;;;;;;;4.35;1.80;;;13.50;89.60;;;13.25;70.69;97650.59;4951914;28;20030;-40
2022/07/16 03:18:33;;;;;;;2.05;1.45;;;13.50;90.00;;;13.17;71.03;97641.19;4955648;28;20123;-40
2022/07/16 03:20:59;;;;;;;6.40;1.85;;;13.40;90.00;;;13.17;71.00;97649.13;4952648;28;20493;-40
2022/07/16 03:23:24;;;;;;;3.50;1.83;;;13.40;90.10;;;13.16;71.07;97646.53;4959378;28;20062;-40
2022/07/16 03:25:50;;;;;;;3.83;1.80;;;13.30;90.10;;;13.11;71.30;97644.09;4958640;28;20085;-39
2022/07/16 03:28:16;;;;;;;2.83;1.88;;;13.30;90.20;;;13.12;71.26;97651.13;4953535;28;20483;-39
2022/07/16 03:30:41;;;;;;;2.75;1.80;;;13.30;90.30;;;13.11;71.25;97649.38;4952404;28;20122;-39
2022/07/16 03:33:07;;;;;;;4.03;1.85;;;13.30;90.30;;;13.10;71.74;97650.31;4946983;28;20027;-40
2022/07/16 03:35:33;;;;;;;2.47;1.80;;;13.30;90.40;;;13.09;71.12;97651.22;4955140;28;20038;-40
2022/07/16 03:40:43;;;;;;;3.50;1.67;;;13.30;90.10;;;13.11;70.61;97649.38;4955374;28;20146;-39
2022/07/16 03:43:09;;;;;;;3.50;1.70;;;13.30;90.60;;;12.97;70.21;97626.16;4954390;28;20030;-40
2022/07/16 03:45:35;;;;;;;2.50;1.83;;;13.30;90.00;;;13.12;70.46;97647.63;4960084;28;20136;-40
2022/07/16 03:48:00;;;;;;;4.43;1.77;;;13.30;90.10;;;13.13;70.92;97644.88;4958511;28;20076;-39
2022/07/16 03:50:26;;;;;;;3.38;1.90;;;13.30;90.30;;;13.13;70.70;97649.31;4953243;28;20039;-39
2022/07/16 03:52:52;;;;;;;4.35;2.03;;;13.30;90.20;;;13.13;70.89;97649.31;4953631;28;20058;-39
2022/07/16 03:55:18;;;;;;;2.92;1.40;;;13.30;90.20;;;13.14;70.74;97656.34;4959781;28;20034;-39
2022/07/16 03:57:44;;;;;;;2.00;1.50;;;13.30;90.20;;;13.13;71.20;97652.81;4957004;28;20038;-40
2022/07/16 04:00:11;;;;;;;6.20;1.35;;;13.30;90.30;;;13.11;71.54;97659.97;4952012;28;20046;-39
2022/07/16 04:02:37;;;;;;;3.42;1.65;;;13.30;90.50;;;13.09;71.27;97669.78;4954744;28;20134;-39
2022/07/16 04:05:04;;;;;;;1.73;1.30;;;13.30;90.40;;;13.12;70.30;97669.66;4950619;28;20038;-40
2022/07/16 04:07:30;;;;;;;2.17;1.42;;;13.30;90.10;;;13.12;70.24;97661.72;4950833;28;20062;-39
2022/07/16 04:09:56;;;;;;;2.75;1.38;;;13.30;90.10;;;13.13;70.17;97662.56;4951038;28;20555;-39
2022/07/16 04:12:23;;;;;;;2.00;1.48;;;13.30;90.10;;;13.14;70.06;97673.09;4960632;28;20027;-40
2022/07/16 04:14:50;;;;;;;3.80;1.67;;;13.30;90.00;;;13.15;69.87;97677.47;4950298;28;20030;-40
2022/07/16 04:17:16;;;;;;;2.10;1.50;;;13.40;90.00;;;13.22;70.29;97687.78;4948218;28;20030;-40
2022/07/16 04:19:41;;;;;;;2.03;1.40;;;13.40;90.10;;;13.23;72.26;97678.94;4949199;28;20291;-40
2022/07/16 04:22:07;;;;;;;4.18;1.60;;;13.40;90.70;;;13.25;72.79;97682.38;4953662;28;20253;-39
2022/07/16 04:24:33;;;;;;;1.65;1.23;;;13.50;91.00;;;13.28;72.48;97680.44;4949251;28;20039;-41
2022/07/16 04:26:59;;;;;;;1.70;1.33;;;13.50;90.90;;;13.36;72.13;97690.72;4945989;28;20122;-40
2022/07/16 04:29:24;;;;;;;2.38;1.50;;;13.50;90.80;;;13.43;72.64;97686.88;4953577;28;20469;-40
2022/07/16 04:31:50;;;;;;;1.90;1.52;;;13.60;90.90;;;13.47;73.09;97683.16;4952889;28;20030;-40
2022/07/16 04:34:16;;;;;;;4.20;1.58;;;13.60;91.00;;;13.54;73.63;97689.06;4954080;28;20057;-40
2022/07/16 04:36:41;;;;;;;2.72;1.77;;;13.70;91.20;;;13.60;74.22;97686.13;4953441;28;20019;-40
2022/07/16 04:39:07;;;;;;;3.03;1.70;;;13.70;91.40;;;13.62;74.54;97686.06;4951152;28;20042;-40
2022/07/16 04:41:33;;;;;;;2.83;1.80;;;13.80;91.50;;;13.64;74.53;97679.78;4950241;28;20034;-40
2022/07/16 04:43:58;;;;;;;2.85;1.80;;;13.90;91.50;;;13.67;74.52;97670.81;4957020;28;20036;-40
2022/07/16 04:46:24;;;;;;;2.08;1.75;;;13.90;91.50;;;13.83;74.68;97679.78;4947434;28;20062;-40
2022/07/16 04:48:50;;;;;;;4.82;1.88;;;14.00;91.60;;;13.93;74.96;97689.06;4957633;28;20026;-40
2022/07/16 04:51:15;;;;;;;3.10;2.13;;;14.10;91.70;;;14.02;75.02;97686.94;4952387;28;20034;-40
2022/07/16 04:53:41;;;;;;;3.30;2.08;;;14.20;91.80;;;14.10;74.63;97688.28;4950103;28;20041;-40
2022/07/16 04:56:07;;;;;;;4.35;2.30;;;14.30;91.60;;;14.22;74.99;97692.16;4949270;28;20542;-40
2022/07/16 04:58:33;;;;;;;3.35;1.92;;;14.40;91.70;;;14.30;74.61;97692.66;4954253;28;20035;-41
2022/07/16 05:00:58;;;;;;;4.15;1.95;;;14.50;91.70;;;14.40;73.94;97700.19;4953672;28;20237;-40
2022/07/16 05:03:24;;;;;;;2.90;1.95;;;14.60;91.40;;;14.48;72.63;97692.69;4955677;28;20046;-39
2022/07/16 05:05:50;;;;;;;3.05;2.05;;;14.70;91.10;;;14.58;71.25;97699.31;4945057;28;20121;-40
2022/07/16 05:08:15;;;;;;;3.00;2.20;;;14.80;90.60;;;14.71;70.67;97696.94;4956775;28;20034;-40
2022/07/16 05:10:42;;;;;;;3.10;1.92;;;14.90;90.40;;;14.81;69.84;97706.16;4953859;28;20554;-40
2022/07/16 05:13:10;;;;;;;5.35;2.20;;;15.00;90.10;;;14.90;68.62;97696.88;4956971;28;20602;-40
2022/07/16 05:15:36;;;;;;;4.32;2.40;;;15.10;89.60;;;15.11;67.94;97704.72;4960939;28;20277;-40
2022/07/16 05:18:04;;;;;;;4.70;2.10;;;15.20;89.10;;;15.35;67.29;97706.13;4954908;28;20031;-40
2022/07/16 05:20:30;;;;;;;3.05;2.05;;;15.40;88.90;;;15.79;65.40;97707.41;4955287;28;20047;-40
2022/07/16 05:22:56;;;;;;;3.22;2.00;;;15.70;88.00;;;16.31;62.81;97699.31;4958203;28;20518;-40
2022/07/16 05:25:23;;;;;;;2.25;1.90;;;16.00;86.90;;;16.81;60.04;97692.03;4959738;28;20065;-40
2022/07/16 05:27:49;;;;;;;3.42;1.80;;;16.40;85.40;;;17.38;57.74;97710.06;4956719;28;20190;-40
2022/07/16 05:30:15;;;;;;;3.08;1.63;;;16.80;83.90;;;18.05;55.43;97714.94;4952749;28;20042;-40
2022/07/16 05:32:42;;;;;;;3.13;1.55;;;17.30;82.70;;;18.81;53.13;97714.56;4957504;28;20022;-40
2022/07/16 05:35:10;;;;;;;4.53;2.47;;;17.80;81.40;;;19.37;50.02;97716.25;4958040;28;20308;-40
2022/07/16 05:37:36;;;;;;;4.15;2.35;;;18.30;78.60;;;19.50;49.28;97706.41;4956037;28;20026;-40
2022/07/16 05:40:03;;;;;;;3.83;1.90;;;18.60;76.90;;;19.36;49.26;97711.84;4959571;28;20548;-40
2022/07/16 05:42:28;;;;;;;2.65;1.40;;;18.70;76.50;;;18.98;45.41;97724.16;4954782;28;21281;-40
2022/07/16 05:44:54;;;;;;;2.22;1.48;;;18.50;70.90;;;18.81;46.72;97725.25;4953911;28;20425;-40
2022/07/16 05:47:20;;;;;;;3.88;1.55;;;18.40;72.30;;;18.70;44.98;97730.44;4952260;28;20039;-41
2022/07/16 05:49:47;;;;;;;3.30;1.80;;;18.40;70.00;;;18.69;45.39;97724.19;4955930;28;20047;-41
2022/07/16 05:52:12;;;;;;;3.28;1.80;;;18.40;70.20;;;18.75;46.69;97722.94;4955785;28;20498;-40
2022/07/16 05:54:38;;;;;;;4.57;1.80;;;18.40;71.70;;;18.69;44.79;97721.53;4958995;28;20042;-40
2022/07/16 05:57:04;;;;;;;3.67;1.42;;;18.40;70.00;;;18.66;47.07;97721.75;4958178;28;20090;-39
2022/07/16 05:59:29;;;;;;;3.53;1.58;;;18.40;71.70;;;18.66;49.56;97720.88;4950312;28;20046;-39
2022/07/16 06:01:55;;;;;;;4.30;1.80;;;18.40;75.10;;;18.61;48.89;97718.53;4956555;28;20034;-40
2022/07/16 06:04:21;;;;;;;2.15;1.75;;;18.50;74.10;;;18.62;48.32;97719.38;4957580;28;20790;-41
2022/07/16 06:06:46;;;;;;;2.60;1.55;;;18.50;73.50;;;18.52;47.85;97713.78;4955757;28;20062;-41
2022/07/16 06:09:12;;;;;;;2.92;1.45;;;18.50;72.60;;;18.56;47.82;97722.44;4958498;28;20035;-40
2022/07/16 06:11:38;;;;;;;2.00;1.48;;;18.40;72.40;;;18.57;46.89;97721.47;4957132;28;20034;-40
2022/07/16 06:14:04;;;;;;;3.70;1.63;;;18.50;71.70;;;18.59;46.72;97731.13;4960098;28;20110;-40
2022/07/16 06:16:30;;;;;;;3.22;1.58;;;18.50;71.00;;;18.56;46.85;97730.47;4958792;28;20035;-41
2022/07/16 06:18:56;;;;;;;1.90;1.65;;;18.50;71.10;;;18.58;47.16;97732.06;4954337;28;20070;-40
2022/07/16 06:21:21;;;;;;;3.25;1.83;;;18.50;71.70;;;18.58;47.84;97724.03;4958298;28;20054;-40
2022/07/16 06:23:47;;;;;;;2.80;1.85;;;18.50;72.10;;;18.68;47.67;97727.84;4956198;28;20516;-40
2022/07/16 06:26:13;;;;;;;3.38;1.65;;;18.60;72.30;;;18.72;47.55;97724.97;4956770;28;20486;-40
2022/07/16 06:28:38;;;;;;;10.98;2.17;;;18.70;72.00;;;18.81;48.43;97737.75;4956398;28;20028;-40
2022/07/16 06:31:04;;;;;;;2.65;1.52;;;18.70;72.30;;;18.93;47.77;97744.13;4952655;28;20443;-40
2022/07/16 06:33:30;;;;;;;2.75;1.60;;;18.90;72.40;;;19.02;47.88;97739.03;4961296;28;20034;-40
2022/07/16 06:35:55;;;;;;;3.42;1.73;;;19.00;72.30;;;19.05;47.54;97743.31;4960048;28;20023;-41
2022/07/16 06:38:22;;;;;;;4.60;1.70;;;19.10;72.00;;;19.12;47.73;97744.63;4955731;28;20070;-42
2022/07/16 06:40:48;;;;;;;5.90;2.53;;;19.10;72.30;;;19.02;47.24;97732.81;4960327;28;20105;-40
2022/07/16 06:43:14;;;;;;;2.70;1.85;;;19.20;71.30;;;19.20;47.37;97747.66;4959104;28;20368;-42
2022/07/16 06:45:43;;;;;;;4.60;1.77;;;19.20;71.30;;;19.31;46.78;97746.06;4960775;28;20085;-41
2022/07/16 06:48:09;;;;;;;3.35;1.75;;;19.30;71.20;;;19.37;47.03;97740.31;4960453;28;20819;-40
2022/07/16 06:50:35;;;;;;;3.50;2.15;;;19.40;71.40;;;19.45;47.23;97746.88;4955989;28;20039;-41
2022/07/16 06:53:00;;;;;;;3.35;1.80;;;19.50;71.10;;;19.57;46.94;97739.81;4956082;28;20274;-41
2022/07/16 06:55:26;;;;;;;3.45;1.77;;;19.60;71.20;;;19.69;46.76;97756.00;4957951;28;20173;-40
2022/07/16 06:57:52;;;;;;;4.55;1.92;;;19.70;71.00;;;19.77;46.80;97748.34;4960006;28;20482;-41
2022/07/16 07:00:18;;;;;;;2.30;1.80;;;19.70;70.80;;;19.81;46.28;97748.03;4958240;28;20038;-40
2022/07/16 07:02:43;;;;;;;3.05;1.70;;;19.80;70.10;;;19.86;45.92;97741.50;4962317;28;20164;-40
2022/07/16 07:05:09;;;;;;;1.98;1.40;;;19.90;69.80;;;20.01;45.82;97756.50;4960550;28;20034;-40
2022/07/16 07:07:35;;;;;;;1.83;1.33;;;20.00;69.70;;;20.13;44.82;97760.13;4958511;28;20656;-40
2022/07/16 07:10:01;;;;;;;4.10;2.30;;;20.10;69.40;;;20.12;43.96;97761.94;4961595;28;20508;-40
2022/07/16 07:12:26;;;;;;;2.78;2.00;;;20.20;67.30;;;20.05;42.99;97766.03;4956054;28;20037;-40
2022/07/16 07:14:52;;;;;;;3.47;1.90;;;20.20;66.00;;;19.88;43.60;97737.72;4952563;28;20023;-40
2022/07/16 07:17:18;;;;;;;3.08;1.80;;;20.10;66.40;;;19.89;43.42;97747.50;4954831;28;20827;-40
2022/07/16 07:19:43;;;;;;;4.97;1.63;;;20.10;66.80;;;20.00;43.48;97769.00;4957620;28;20030;-40
2022/07/16 07:22:09;;;;;;;4.32;2.10;;;20.10;66.40;;;20.00;43.19;97760.97;4962330;28;20042;-41
2022/07/16 07:24:35;;;;;;;2.97;1.70;;;20.00;65.60;;;20.12;43.24;97755.75;4957574;28;20676;-40
2022/07/16 07:27:00;;;;;;;5.93;1.98;;;20.10;66.60;;;19.91;43.29;97752.75;4961512;28;20031;-41
2022/07/16 07:29:26;;;;;;;5.03;2.00;;;20.10;64.80;;;19.92;43.34;97755.31;4960195;28;20058;-41
2022/07/16 07:31:52;;;;;;;4.22;1.80;;;20.10;66.90;;;20.00;43.18;97765.47;4957992;28;20038;-40
2022/07/16 07:34:17;;;;;;;2.60;1.92;;;20.10;65.80;;;20.12;43.85;97769.97;4961381;28;20058;-40
2022/07/16 07:36:43;;;;;;;6.72;2.17;;;20.10;66.80;;;20.18;42.88;97761.50;4958803;28;20038;-40
2022/07/16 07:39:09;;;;;;;6.30;2.00;;;20.30;65.60;;;20.26;42.58;97766.34;4973078;22;20046;-52
2022/07/16 07:41:35;;;;;;;3.05;1.70;;;20.40;65.40;;;20.35;42.93;97768.38;4952833;28;20034;-51
2022/07/16 07:44:01;;;;;;;3.28;1.90;;;20.40;65.90;;;20.50;43.25;97762.88;4951726;28;20105;-51
2022/07/16 07:46:26;;;;;;;3.85;1.73;;;20.50;66.40;;;20.67;43.40;97761.69;4948651;28;20035;-50
2022/07/16 07:48:52;;;;;;;7.75;2.03;;;20.70;66.70;;;20.82;43.47;97757.91;4950657;28;20046;-48
2022/07/16 07:51:18;;;;;;;2.15;1.83;;;20.90;66.90;;;20.90;42.78;97763.53;4955646;28;20350;-52
2022/07/16 07:53:43;;;;;;;3.20;1.60;;;20.90;65.80;;;20.99;42.11;97762.03;4943267;28;20023;-52
2022/07/16 07:56:10;;;;;;;5.40;2.10;;;20.90;64.10;;;20.98;41.64;97754.97;4957483;28;20488;-48
2022/07/16 07:58:38;;;;;;;2.90;1.92;;;21.00;63.60;;;21.12;42.65;97760.16;4961162;28;20038;-52
2022/07/16 08:01:03;;;;;;;6.32;1.75;;;21.10;65.20;;;21.20;40.85;97762.25;4962904;28;20527;-49
2022/07/16 08:03:29;;;;;;;4.40;1.75;;;21.20;63.40;;;21.25;41.36;97764.63;4956404;28;20129;-50
2022/07/16 08:05:55;;;;;;;2.35;1.65;;;21.30;62.90;;;21.27;40.15;97762.66;4956572;28;20031;-51
2022/07/16 08:08:21;;;;;;;3.08;1.65;;;21.40;61.90;;;21.26;39.92;97761.78;4946573;28;20495;-50
2022/07/16 08:10:47;;;;;;;3.88;2.03;;;21.40;62.30;;;21.27;39.17;97765.34;4945286;28;22979;-49
2022/07/16 08:13:12;;;;;;;3.88;1.60;;;21.30;60.90;;;21.29;39.05;97758.88;4945406;28;20511;-51
2022/07/16 08:15:38;;;;;;;2.92;1.50;;;21.30;60.20;;;21.29;38.36;97752.69;4942739;28;20471;-52
2022/07/16 08:18:04;;;;;;;2.53;1.50;;;21.40;59.80;;;21.32;38.75;97760.50;4941239;28;20034;-49
2022/07/16 08:20:29;;;;;;;5.70;1.48;;;21.40;59.90;;;21.13;38.18;97743.09;4948465;28;20733;-51
2022/07/16 08:22:55;;;;;;;2.60;1.33;;;21.30;59.10;;;21.32;39.48;97763.19;4954482;28;20384;-48
2022/07/16 08:28:05;;;;;;;2.03;1.00;;;21.40;59.90;;;21.62;38.93;97759.16;4941465;28;20553;-49
2022/07/16 08:30:31;;;;;;;2.00;1.30;;;21.60;59.80;;;21.82;38.74;97754.94;4945414;28;20133;-51
2022/07/16 08:32:57;;;;;;;1.63;1.30;;;21.80;59.70;;;21.97;38.96;97755.63;4942538;28;20554;-50
2022/07/16 08:35:23;;;;;;;3.20;1.60;;;21.90;59.90;;;22.05;38.34;97766.59;4945421;28;20502;-51
2022/07/16 08:37:49;;;;;;;3.67;1.75;;;22.00;59.40;;;22.03;38.06;97752.44;4948263;28;20475;-52
2022/07/16 08:40:18;;;;;;;5.25;1.50;;;22.00;59.40;;;22.17;38.63;97756.72;4950010;28;20050;-50
2022/07/16 08:42:44;;;;;;;2.72;1.42;;;22.10;59.50;;;22.18;36.79;97767.34;4949346;28;20102;-50
2022/07/16 08:45:12;;;;;;;3.33;1.40;;;22.20;57.30;;;22.15;36.45;97770.28;4953348;28;20058;-49
2022/07/16 08:47:38;;;;;;;2.33;1.50;;;22.20;57.10;;;22.08;37.40;97763.69;4958218;28;20038;-51
2022/07/16 08:50:12;;;;;;;4.10;1.58;;;22.10;58.20;;;21.95;36.83;97771.84;4950978;28;20120;-49
2022/07/16 08:52:57;;;;;;;3.60;1.40;;;22.00;57.30;;;21.90;36.65;97774.00;4950050;28;20039;-50
2022/07/16 08:55:25;;;;;;;1.80;1.27;;;22.00;57.30;;;21.90;36.32;97761.44;4947107;28;20026;-50
2022/07/16 08:57:52;;;;;;;2.33;1.40;;;21.90;56.80;;;21.92;36.88;97762.16;4956384;28;20117;-48
2022/07/16 09:00:20;;;;;;;2.60;1.40;;;21.90;57.20;;;22.03;37.43;97763.19;4952121;28;20031;-49
2022/07/16 09:02:46;;;;;;;1.98;1.30;;;22.00;58.10;;;22.03;37.15;97764.03;4951453;28;20495;-50
2022/07/16 09:05:13;;;;;;;2.15;1.27;;;22.10;57.90;;;22.02;37.01;97761.44;4956238;28;20450;-50
2022/07/16 09:07:38;;;;;;;3.22;1.23;;;22.10;57.50;;;21.99;36.00;97769.75;4952883;28;20026;-51
2022/07/16 09:10:07;;;;;;;4.10;1.38;;;22.00;56.50;;;21.99;36.17;97775.13;4953630;28;20050;-50
2022/07/16 09:12:45;;;;;;;2.63;1.30;;;22.00;56.70;;;22.04;36.07;97772.97;4952086;28;20037;-48
2022/07/16 09:15:32;;;;;;;2.60;1.40;;;22.10;56.20;;;21.95;35.64;97768.28;4932444;28;20058;-50
2022/07/16 09:18:23;;;;;;;1.90;1.20;;;22.00;55.30;;;21.91;36.52;97749.75;4955563;28;20047;-49
2022/07/16 09:21:00;;;;;;;2.35;1.30;;;22.10;56.30;;;22.14;35.91;97773.09;4952910;28;20030;-48
2022/07/16 09:23:31;;;;;;;3.40;1.30;;;22.10;56.00;;;22.21;36.23;97761.72;4952498;28;20664;-50
2022/07/16 09:26:00;;;;;;;4.07;1.15;;;22.20;56.30;;;22.31;37.17;97764.59;4951194;28;20038;-49
2022/07/16 09:28:43;;;;;;;1.95;1.20;;;22.30;57.10;;;22.42;36.09;97777.16;4951811;28;20137;-49
2022/07/16 09:31:31;;;;;;;2.63;1.33;;;22.40;56.80;;;22.37;35.46;97771.31;4951921;28;20450;-50
2022/07/16 09:34:10;;;;;;;2.13;1.20;;;22.50;55.90;;;22.46;35.75;97775.94;4954965;28;20427;-51
2022/07/16 09:36:39;;;;;;;1.50;0.95;;;22.50;56.40;;;22.49;35.70;97775.72;4949003;28;20051;-51
2022/07/16 09:39:07;;;;;;;3.08;1.35;;;22.50;56.00;;;22.51;35.82;97781.81;4952783;28;20113;-51
2022/07/16 09:41:45;;;;;;;4.53;1.35;;;22.50;55.80;;;22.52;35.66;97778.13;4948222;28;20853;-50
2022/07/16 09:44:20;;;;;;;1.65;1.00;;;22.50;55.70;;;22.49;35.60;97781.09;4950800;28;20034;-51
2022/07/16 09:47:07;;;;;;;5.13;1.42;;;22.50;54.90;;;22.43;35.74;97777.06;4954963;28;20066;-50
2022/07/16 09:49:39;;;;;;;1.98;0.93;;;22.50;55.00;;;22.45;35.43;97772.41;4953850;28;20082;-51
2022/07/16 09:52:08;;;;;;;4.10;1.10;;;22.50;55.70;;;22.48;35.88;97774.84;4938973;28;20039;-50
2022/07/16 09:54:37;;;;;;;1.92;1.17;;;22.50;55.90;;;22.53;35.46;97765.56;4921802;28;20042;-49
2022/07/16 09:57:13;;;;;;;4.72;1.50;;;22.60;56.10;;;22.39;35.43;97772.03;4947614;28;20048;-49
2022/07/16 09:59:40;;;;;;;2.35;1.40;;;22.50;54.80;;;22.27;36.49;97766.66;4956025;28;20031;-48
2022/07/16 10:02:07;;;;;;;3.00;1.30;;;22.40;55.20;;;22.32;35.40;97768.97;4937419;28;20447;-47
2022/07/16 10:04:33;;;;;;;5.55;1.42;;;22.40;55.30;;;22.30;35.92;97763.72;4950974;28;20058;-52
2022/07/16 10:06:59;;;;;;;2.65;1.35;;;22.40;55.90;;;22.40;36.35;97765.69;4958585;28;20514;-50
2022/07/16 10:09:26;;;;;;;4.22;2.03;;;22.40;56.80;;;22.43;36.07;97752.88;4954087;28;20130;-50
2022/07/16 10:11:55;;;;;;;3.63;1.60;;;22.60;56.50;;;22.72;37.06;97773.00;4954833;28;20085;-47
2022/07/16 10:14:21;;;;;;;2.97;1.52;;;22.70;57.00;;;22.86;36.44;97778.09;4957079;28;20031;-48
2022/07/16 10:16:47;;;;;;;4.65;1.20;;;22.80;56.80;;;23.00;35.67;97769.75;4951963;28;20267;-51
2022/07/16 10:19:14;;;;;;;1.90;1.20;;;23.00;55.60;;;23.11;35.47;97776.13;4955631;28;20039;-49
2022/07/16 10:21:41;;;;;;;2.58;1.50;;;23.10;55.00;;;23.09;34.07;97770.03;4947943;28;20043;-49
2022/07/16 10:24:13;;;;;;;2.50;1.40;;;23.10;54.10;;;22.90;34.01;97770.63;4940915;28;20030;-49
2022/07/16 10:26:39;;;;;;;1.83;1.20;;;23.00;53.40;;;22.90;34.65;97773.34;4953171;28;20096;-50